Information Last Ob Photographs Meteogram Network Table Neighbors Monthly Summaries Observation History Wind Roses Custom Wind Roses Data Calendar Satellite Cloud Product Download

15 April 2024 Observation History, [PRX] PARIS/COX FIELD, timezone: America/Chicago

Select Date: Time Order:

Show METARs   Show High Frequency MADIS

Previous Day
Time Wind
(mph)
Vis.
(mi.)
Sky Cond.
(100s ft)
Present Wx Temperature (ºF) Relative
Humidity
Pressure Snow
Depth
(in)
Precipitation (in.)
Air Dwpt Feels Like 6 hour altimeter
(in.)
sea level
(mb)
1 hr 3 hr 6 hr
Max.Min.
12:00 AMESE 610 CLR
% 29.94
KPRX 150500Z AUTO 11005KT 10SM CLR 19/19 A2994 RMK T01900190 MADISHF
12:05 AMESE 610 CLR
% 29.94
KPRX 150505Z AUTO 11005KT 10SM CLR 19/19 A2994 RMK T01900190 MADISHF
12:10 AMESE 610 CLR
% 29.94
KPRX 150510Z AUTO 11005KT 10SM CLR 19/19 A2994 RMK T01900190 MADISHF
12:15 AMESE 610 CLR
% 29.94
KPRX 150515Z AUTO 11005KT 10SM CLR 18/18 A2994 RMK T01800180 MADISHF
12:20 AMESE 610 CLR
% 29.93
KPRX 150520Z AUTO 11005KT 10SM CLR 18/18 A2993 RMK T01800180 MADISHF
12:25 AMESE 610 CLR
% 29.93
KPRX 150525Z AUTO 11005KT 10SM CLR 18/18 A2993 RMK T01800180 MADISHF
12:30 AMESE 610 CLR
% 29.93
KPRX 150530Z AUTO 11005KT 10SM CLR 18/18 A2993 RMK T01800180 MADISHF
12:35 AMESE 810 CLR
% 29.93
KPRX 150535Z AUTO 11007KT 10SM CLR 18/18 A2993 RMK T01800180 MADISHF
12:40 AMESE 89 CLR
% 29.93
KPRX 150540Z AUTO 11007KT 9SM CLR 18/18 A2993 RMK T01800180 MADISHF
12:45 AMESE 69 CLR
% 29.93
KPRX 150545Z AUTO 11005KT 9SM CLR 18/18 A2993 RMK T01800180 MADISHF
12:50 AMESE 610 CLR
% 29.93
KPRX 150550Z AUTO 11005KT 10SM CLR 18/18 A2993 RMK T01800180 MADISHF
12:55 AMESE 810 CLR
% 29.93
KPRX 150555Z AUTO 12007KT 10SM CLR 18/18 A2993 RMK T01800180 MADISHF
12:56 AMESE 810 CLR
656565 76 65 100% 29.931013.30
KPRX 150556Z AUTO 12007KT 10SM CLR 18/18 A2993 RMK AO2 SLP133 T01830183 10244 20183 402720150 58005
1:00 AMESE 810 CLR
% 29.93
KPRX 150600Z AUTO 12007KT 10SM CLR A2993 RMK T0180 MADISHF
1:05 AMSE 810 CLR
% 29.93
KPRX 150605Z AUTO 13007KT 10SM CLR 19/19 A2993 RMK T01900190 MADISHF
1:10 AMSE 610 CLR
% 29.93
KPRX 150610Z AUTO 13005KT 10SM CLR 18/18 A2993 RMK T01800180 MADISHF
1:15 AMSE 810 CLR
% 29.92
KPRX 150615Z AUTO 14007KT 10SM CLR 18/18 A2992 RMK T01800180 MADISHF
1:20 AMSE 810 CLR
% 29.92
KPRX 150620Z AUTO 14007KT 10SM CLR 19/19 A2992 RMK T01900190 MADISHF
1:25 AMSE 810 CLR
% 29.92
KPRX 150625Z AUTO 14007KT 10SM CLR 19/19 A2992 RMK T01900190 MADISHF
1:30 AMSE 810 CLR
% 29.92
KPRX 150630Z AUTO 14007KT 10SM CLR 19/19 A2992 RMK T01900190 MADISHF
1:35 AMSE 810 CLR
% 29.92
KPRX 150635Z AUTO 14007KT 10SM CLR 19/19 A2992 RMK T01900190 MADISHF
1:40 AMSE 810 CLR
% 29.92
KPRX 150640Z AUTO 14007KT 10SM CLR 19/19 A2992 RMK T01900190 MADISHF
1:45 AMSE 810 CLR
% 29.92
KPRX 150645Z AUTO 14007KT 10SM CLR 19/19 A2992 RMK T01900190 MADISHF
1:50 AMSE 810 CLR
% 29.92
KPRX 150650Z AUTO 14007KT 10SM CLR 19/19 A2992 RMK T01900190 MADISHF
1:55 AMSSE 810 CLR
% 29.92
KPRX 150655Z AUTO 15007KT 10SM CLR 19/19 A2992 RMK T01900190 MADISHF
1:56 AMSSE 810 CLR
666666 100% 29.921012.80
KPRX 150656Z AUTO 15007KT 10SM CLR 19/19 A2992 RMK AO2 SLP128 T01890189
2:00 AMSSE 810 CLR
% 29.92
KPRX 150700Z AUTO 16007KT 10SM CLR 19/19 A2992 RMK T01900190 MADISHF
2:05 AMSSE 910 CLR
% 29.91
KPRX 150705Z AUTO 16008KT 10SM CLR 19/19 A2991 RMK T01900190 MADISHF
2:10 AMSSE 810 CLR
% 29.91
KPRX 150710Z AUTO 16007KT 10SM CLR 19/19 A2991 RMK T01900190 MADISHF
2:15 AMSSE 910 CLR
% 29.91
KPRX 150715Z AUTO 16008KT 10SM CLR 19/19 A2991 RMK T01900190 MADISHF
2:20 AMSSE 910 CLR
% 29.91
KPRX 150720Z AUTO 15008KT 10SM CLR 19/19 A2991 RMK T01900190 MADISHF
2:25 AMSSE 810 CLR
% 29.91
KPRX 150725Z AUTO 15007KT 10SM CLR 19/19 A2991 RMK T01900190 MADISHF
2:30 AMSSE 810 CLR
% 29.91
KPRX 150730Z AUTO 15007KT 10SM CLR 19/19 A2991 RMK T01900190 MADISHF
2:35 AMSE 610 CLR
% 29.9
KPRX 150735Z AUTO 14005KT 10SM CLR 19/19 A2990 RMK T01900190 MADISHF
2:40 AMSE 810 CLR
% 29.9
KPRX 150740Z AUTO 14007KT 10SM CLR 19/19 A2990 RMK T01900190 MADISHF
2:45 AMSSE 610 CLR
% 29.9
KPRX 150745Z AUTO 15005KT 10SM CLR 19/19 A2990 RMK T01900190 MADISHF
2:50 AMSE 610 CLR
% 29.9
KPRX 150750Z AUTO 14005KT 10SM CLR 19/19 A2990 RMK T01900190 MADISHF
2:55 AMSE 810 CLR
% 29.89
KPRX 150755Z AUTO 14007KT 10SM CLR 19/19 A2989 RMK T01900190 MADISHF
2:56 AMSE 810 CLR
666666 100% 29.891011.90
KPRX 150756Z AUTO 14007KT 10SM CLR 19/19 A2989 RMK AO2 SLP119 T01890189
3:00 AMSSE 810 CLR
% 29.89
KPRX 150800Z AUTO 15007KT 10SM CLR 19/19 A2989 RMK T01900190 MADISHF
3:05 AMSSE 810 CLR
% 29.89
KPRX 150805Z AUTO 15007KT 10SM CLR 19/19 A2989 RMK T01900190 MADISHF
3:10 AMSSE 610 CLR
% 29.9
KPRX 150810Z AUTO 15005KT 10SM CLR 19/19 A2990 RMK T01900190 MADISHF
3:15 AMSSE 610 CLR
% 29.9
KPRX 150815Z AUTO 15005KT 10SM CLR 19/19 A2990 RMK T01900190 MADISHF
3:20 AMSSE 610 CLR
% 29.9
KPRX 150820Z AUTO 16005KT 10SM CLR 19/19 A2990 RMK T01900190 MADISHF
3:25 AMSSE 610 CLR
% 29.9
KPRX 150825Z AUTO 15005KT 10SM CLR 19/19 A2990 RMK T01900190 MADISHF
3:30 AMSSE 610 CLR
% 29.9
KPRX 150830Z AUTO 15005KT 10SM CLR 18/18 A2990 RMK T01800180 MADISHF
3:35 AMSSE 610 CLR
% 29.9
KPRX 150835Z AUTO 15005KT 10SM CLR 18/18 A2990 RMK T01800180 MADISHF
3:40 AMSSE 610 CLR
% 29.9
KPRX 150840Z AUTO 15005KT 10SM CLR 18/18 A2990 RMK T01800180 MADISHF
3:45 AMSSE 610 CLR
% 29.9
KPRX 150845Z AUTO 15005KT 10SM CLR 18/18 A2990 RMK T01800180 MADISHF
3:50 AMSSE 610 CLR
% 29.9
KPRX 150850Z AUTO 15005KT 10SM CLR 18/18 A2990 RMK T01800180 MADISHF
3:56 AMSE 710 CLR
656565 100% 29.8910120
KPRX 150856Z AUTO 14006KT 10SM CLR 18/18 A2989 RMK AO2 SLP120 T01830183 55013
4:00 AMSE 610 CLR
% 29.89
KPRX 150900Z AUTO 14005KT 10SM CLR A2989 RMK T0180 MADISHF
4:05 AMSE 610 CLR
% 29.89
KPRX 150905Z AUTO 13005KT 10SM CLR A2989 RMK T0180 MADISHF
4:10 AMESE 610 CLR
% 29.9
KPRX 150910Z AUTO 12005KT 10SM CLR 18/18 A2990 RMK T01800180 MADISHF
4:15 AMSE 610 CLR
% 29.9
KPRX 150915Z AUTO 13005KT 10SM CLR A2990 RMK T0180 MADISHF
4:20 AMSE 810 CLR
% 29.89
KPRX 150920Z AUTO 13007KT 10SM CLR A2989 RMK T0180 MADISHF
4:25 AMSE 810 CLR
% 29.89
KPRX 150925Z AUTO 13007KT 10SM CLR 18/18 A2989 RMK T01800180 MADISHF
4:30 AMSE 810 CLR
% 29.89
KPRX 150930Z AUTO 13007KT 10SM CLR A2989 RMK T0180 MADISHF
4:35 AMSE 810 CLR
% 29.89
KPRX 150935Z AUTO 13007KT 10SM CLR 18/18 A2989 RMK T01800180 MADISHF
4:40 AMSE 810 CLR
% 29.89
KPRX 150940Z AUTO 13007KT 10SM CLR 18/18 A2989 RMK T01800180 MADISHF
4:45 AMESE 810 CLR
% 29.89
KPRX 150945Z AUTO 12007KT 10SM CLR 18/18 A2989 RMK T01800180 MADISHF
4:50 AMSE 810 CLR
% 29.89
KPRX 150950Z AUTO 13007KT 10SM CLR 18/18 A2989 RMK T01800180 MADISHF
4:56 AMSE 810 CLR
646464 100% 29.891011.70
KPRX 150956Z AUTO 13007KT 10SM CLR 18/18 A2989 RMK AO2 SLP117 T01780178
5:00 AMSE 810 CLR
% 29.89
KPRX 151000Z AUTO 13007KT 10SM CLR 18/18 A2989 RMK T01800180 MADISHF
5:05 AMESE 610 CLR
% 29.89
KPRX 151005Z AUTO 12005KT 10SM CLR 18/18 A2989 RMK T01800180 MADISHF
5:10 AMESE 810 CLR
% 29.88
KPRX 151010Z AUTO 12007KT 10SM CLR 18/18 A2988 RMK T01800180 MADISHF
5:15 AMESE 610 CLR
% 29.88
KPRX 151015Z AUTO 12005KT 10SM CLR 18/18 A2988 RMK T01800180 MADISHF
5:20 AMESE 610 CLR
% 29.89
KPRX 151020Z AUTO 11005KT 10SM CLR A2989 RMK T0170 MADISHF
5:25 AMESE 610 CLR
% 29.89
KPRX 151025Z AUTO 11005KT 10SM CLR A2989 RMK T0170 MADISHF
5:30 AMESE 610 CLR
% 29.89
KPRX 151030Z AUTO 11005KT 10SM CLR 17/17 A2989 RMK T01700170 MADISHF

The IEM API webservice that provided data to this page. For more details, see documentation.

Data Notes

  • For recent years, this page also optionally shows observations from the MADIS High Frequency METAR dataset. This dataset had a problem with temperatures detailed here.